createdAt,value
2022-10-09T00:01:31.042Z,3.97
2022-10-09T00:04:00.884Z,3.65
2022-10-09T00:06:31.635Z,4.05
2022-10-09T00:09:01.823Z,4.13
2022-10-09T00:11:33.609Z,3.83
2022-10-09T00:14:03.530Z,4.25
2022-10-09T00:16:32.010Z,3.60
2022-10-09T00:19:00.543Z,3.25
2022-10-09T00:21:31.813Z,3.65
2022-10-09T00:24:03.406Z,3.50
2022-10-09T00:26:33.535Z,2.67
2022-10-09T00:29:01.881Z,3.15
2022-10-09T00:31:30.310Z,3.95
2022-10-09T00:33:58.672Z,3.33
2022-10-09T00:36:28.549Z,3.75
2022-10-09T00:38:57.194Z,3.00
2022-10-09T00:41:28.566Z,3.45
2022-10-09T00:44:00.424Z,3.15
2022-10-09T00:46:41.356Z,3.20
2022-10-09T00:49:18.928Z,3.47
2022-10-09T00:51:49.072Z,3.03
2022-10-09T00:54:25.318Z,2.85
2022-10-09T00:56:54.549Z,2.63
2022-10-09T00:59:24.988Z,3.00
2022-10-09T01:01:53.705Z,3.30
2022-10-09T01:04:22.082Z,3.53
2022-10-09T01:07:19.975Z,3.40
2022-10-09T01:09:56.865Z,3.17
2022-10-09T01:12:37.989Z,2.85
2022-10-09T01:15:17.909Z,3.42
2022-10-09T01:17:57.940Z,3.00
2022-10-09T01:20:43.228Z,3.63
2022-10-09T01:23:44.453Z,2.65
2022-10-09T01:26:34.417Z,2.92
2022-10-09T01:29:09.039Z,2.97
2022-10-09T01:31:41.805Z,3.45
2022-10-09T01:34:12.593Z,3.42
2022-10-09T01:36:41.742Z,3.30
2022-10-09T01:39:14.737Z,3.42
2022-10-09T01:41:43.640Z,3.63
2022-10-09T01:44:22.919Z,3.22
2022-10-09T01:46:51.618Z,3.70
2022-10-09T01:49:43.135Z,2.60
2022-10-09T01:52:27.968Z,2.83
2022-10-09T01:55:11.768Z,3.15
2022-10-09T01:57:49.216Z,3.05
2022-10-09T02:00:19.796Z,2.83
2022-10-09T02:02:49.084Z,3.15
2022-10-09T02:05:23.676Z,2.63
2022-10-09T02:07:52.849Z,2.50
2022-10-09T02:10:23.087Z,2.88
2022-10-09T02:12:56.292Z,2.53
2022-10-09T02:15:32.034Z,3.17
2022-10-09T02:18:09.005Z,3.28
2022-10-09T02:20:41.720Z,3.40
2022-10-09T02:23:11.325Z,3.10
2022-10-09T02:25:39.773Z,2.92
2022-10-09T02:28:09.241Z,3.10
2022-10-09T02:30:53.005Z,3.33
2022-10-09T02:33:31.359Z,2.70
2022-10-09T02:36:00.118Z,3.38
2022-10-09T02:38:29.044Z,2.83
2022-10-09T02:41:00.093Z,2.67
2022-10-09T02:43:29.265Z,2.78
2022-10-09T02:45:58.836Z,2.97
2022-10-09T02:48:27.123Z,2.83
2022-10-09T02:50:55.641Z,2.88
2022-10-09T02:53:23.930Z,3.47
2022-10-09T02:55:52.129Z,3.00
2022-10-09T02:58:20.409Z,2.95
2022-10-09T03:00:50.103Z,2.95
2022-10-09T03:03:20.818Z,3.17
2022-10-09T03:05:49.521Z,3.10
2022-10-09T03:08:17.728Z,3.40
2022-10-09T03:10:45.970Z,4.63
2022-10-09T03:13:14.537Z,3.80
2022-10-09T03:15:43.076Z,3.10
2022-10-09T03:18:11.647Z,4.47
2022-10-09T03:20:41.416Z,3.40
2022-10-09T03:23:09.633Z,4.30
2022-10-09T03:25:37.846Z,4.22
2022-10-09T03:28:06.158Z,4.75
2022-10-09T03:30:34.421Z,3.50
2022-10-09T03:33:03.155Z,3.83
2022-10-09T03:35:31.336Z,4.22
2022-10-09T03:38:00.856Z,4.13
2022-10-09T03:40:29.481Z,3.75
2022-10-09T03:42:57.894Z,3.17
2022-10-09T03:45:26.645Z,3.33
2022-10-09T03:47:56.541Z,3.30
2022-10-09T03:50:24.753Z,3.65
2022-10-09T03:52:53.011Z,3.78
2022-10-09T03:55:22.575Z,3.78
2022-10-09T03:57:50.773Z,3.70
2022-10-09T04:00:19.231Z,4.60
2022-10-09T04:02:47.883Z,3.38
2022-10-09T04:05:16.446Z,3.28
2022-10-09T04:07:45.025Z,3.85
2022-10-09T04:10:13.571Z,3.88
2022-10-09T04:12:43.243Z,3.40
2022-10-09T04:15:12.058Z,3.90
2022-10-09T04:17:40.300Z,4.03
2022-10-09T04:20:09.680Z,4.63
2022-10-09T04:22:37.854Z,3.08
2022-10-09T04:25:07.089Z,3.70
2022-10-09T04:27:35.579Z,4.22
2022-10-09T04:30:06.656Z,4.13
2022-10-09T04:32:34.913Z,3.55
2022-10-09T04:35:03.140Z,4.45
2022-10-09T04:37:31.375Z,3.35
2022-10-09T04:39:59.883Z,3.70
2022-10-09T04:42:28.073Z,3.55
2022-10-09T04:44:56.254Z,3.75
2022-10-09T04:47:25.922Z,4.45
2022-10-09T04:49:54.072Z,3.58
2022-10-09T04:52:22.559Z,3.75
2022-10-09T04:54:51.095Z,4.03
2022-10-09T04:57:19.735Z,4.22
2022-10-09T04:59:48.252Z,3.67
2022-10-09T05:02:16.813Z,3.85
2022-10-09T05:04:48.085Z,4.40
2022-10-09T05:07:16.623Z,3.40
2022-10-09T05:09:44.834Z,3.92
2022-10-09T05:12:13.428Z,4.22
2022-10-09T05:14:41.668Z,3.67
2022-10-09T05:17:14.211Z,3.78
2022-10-09T05:19:42.951Z,3.53
2022-10-09T05:22:12.854Z,3.85
2022-10-09T05:24:41.176Z,4.10
2022-10-09T05:27:09.584Z,4.53
2022-10-09T05:29:38.104Z,3.92
2022-10-09T05:32:06.402Z,3.67
2022-10-09T05:34:35.428Z,3.80
2022-10-09T05:37:03.946Z,4.25
2022-10-09T05:39:35.811Z,3.97
2022-10-09T05:42:04.532Z,4.75
2022-10-09T05:44:32.737Z,4.55
2022-10-09T05:47:01.017Z,4.85
2022-10-09T05:49:29.257Z,4.72
2022-10-09T05:51:57.525Z,4.57
2022-10-09T05:54:25.952Z,3.47
2022-10-09T05:56:55.550Z,3.90
2022-10-09T05:59:24.056Z,3.67
2022-10-09T06:01:54.777Z,4.15
2022-10-09T06:04:25.185Z,3.90
2022-10-09T06:06:53.792Z,4.03
2022-10-09T06:09:25.418Z,3.30
2022-10-09T06:11:56.038Z,4.00
2022-10-09T06:14:25.055Z,3.60
2022-10-09T06:16:53.677Z,4.20
2022-10-09T06:19:22.905Z,3.95
2022-10-09T06:21:51.849Z,4.35
2022-10-09T06:24:28.239Z,4.50
2022-10-09T06:26:59.346Z,4.85
2022-10-09T06:29:28.201Z,4.20
2022-10-09T06:31:56.725Z,4.22
2022-10-09T06:34:25.783Z,4.82
2022-10-09T06:36:53.996Z,4.65
2022-10-09T06:39:22.640Z,5.68
2022-10-09T06:41:51.207Z,3.45
2022-10-09T06:44:47.178Z,4.05
2022-10-09T06:47:15.389Z,4.40
2022-10-09T06:49:43.546Z,4.22
2022-10-09T06:52:11.824Z,4.25
2022-10-09T06:54:40.076Z,3.22
2022-10-09T06:57:08.593Z,3.63
2022-10-09T06:59:36.777Z,4.00
2022-10-09T07:02:06.495Z,4.30
2022-10-09T07:04:34.801Z,5.63
2022-10-09T07:07:03.164Z,4.45
2022-10-09T07:09:31.432Z,4.07
2022-10-09T07:11:59.652Z,3.88
2022-10-09T07:14:28.062Z,3.38
2022-10-09T07:16:56.230Z,3.28
2022-10-09T07:19:25.776Z,3.15
2022-10-09T07:21:54.068Z,3.58
2022-10-09T07:24:24.536Z,3.40
2022-10-09T07:26:55.314Z,3.45
2022-10-09T07:29:24.003Z,3.25
2022-10-09T07:31:52.199Z,2.90
2022-10-09T07:34:20.624Z,2.95
2022-10-09T07:36:50.183Z,2.72
2022-10-09T07:39:20.006Z,3.55
2022-10-09T07:41:51.524Z,2.60
2022-10-09T07:44:20.216Z,2.42
2022-10-09T07:46:50.328Z,2.05
2022-10-09T07:49:18.549Z,2.45
2022-10-09T07:51:46.938Z,2.33
2022-10-09T07:54:16.740Z,2.50
2022-10-09T07:56:45.205Z,3.45
2022-10-09T07:59:16.364Z,2.75
2022-10-09T08:01:44.673Z,2.30
2022-10-09T08:04:13.038Z,3.47
2022-10-09T08:06:41.371Z,3.08
2022-10-09T08:09:10.171Z,2.30
2022-10-09T08:11:41.038Z,2.45
2022-10-09T08:14:18.059Z,2.72
2022-10-09T08:16:47.975Z,2.22
2022-10-09T08:19:16.661Z,2.50
2022-10-09T08:21:44.944Z,2.38
2022-10-09T08:24:13.398Z,2.33
2022-10-09T08:26:44.214Z,2.10
2022-10-09T08:29:15.969Z,2.55
2022-10-09T08:31:44.356Z,2.08
2022-10-09T08:34:12.750Z,1.95
2022-10-09T08:36:41.524Z,2.40
2022-10-09T08:39:09.948Z,2.50
2022-10-09T08:41:48.237Z,2.22
2022-10-09T08:44:21.875Z,2.30
2022-10-09T08:47:06.142Z,2.00
2022-10-09T08:49:44.603Z,2.50
2022-10-09T08:52:29.570Z,3.22
2022-10-09T08:55:03.167Z,2.50
2022-10-09T08:57:35.341Z,2.58
2022-10-09T09:00:03.746Z,2.60
2022-10-09T09:02:59.000Z,2.53
2022-10-09T09:05:40.313Z,2.80
2022-10-09T09:08:23.069Z,2.55
2022-10-09T09:10:58.629Z,2.08
2022-10-09T09:13:46.652Z,2.75
2022-10-09T09:16:26.117Z,2.33
2022-10-09T09:19:33.865Z,2.15
2022-10-09T09:22:02.465Z,2.38
2022-10-09T09:24:43.304Z,1.73
2022-10-09T09:27:15.319Z,2.03
2022-10-09T09:29:49.952Z,2.13
2022-10-09T09:34:50.304Z,2.13
2022-10-09T09:37:18.826Z,1.92
2022-10-09T09:42:35.832Z,1.58
2022-10-09T09:45:14.544Z,2.15
2022-10-09T09:47:47.938Z,1.48
2022-10-09T09:50:42.259Z,1.70
2022-10-09T09:53:12.482Z,1.60
2022-10-09T09:55:40.944Z,1.50
2022-10-09T09:58:15.800Z,1.63
2022-10-09T10:00:56.970Z,1.67
2022-10-09T10:03:27.384Z,1.30
2022-10-09T10:05:55.999Z,1.52
2022-10-09T10:08:27.744Z,1.65
2022-10-09T10:10:59.469Z,1.30
2022-10-09T10:13:35.783Z,2.00
2022-10-09T10:16:08.559Z,1.58
2022-10-09T10:18:42.122Z,1.40
2022-10-09T10:21:14.229Z,1.80
2022-10-09T10:23:46.424Z,1.70
2022-10-09T10:26:27.916Z,1.27
2022-10-09T10:29:03.420Z,1.27
2022-10-09T10:31:44.113Z,1.23
2022-10-09T10:34:22.152Z,0.90
2022-10-09T10:37:02.505Z,0.95
2022-10-09T10:39:41.317Z,1.10
2022-10-09T10:42:20.145Z,0.90
2022-10-09T10:44:56.728Z,0.88
2022-10-09T10:47:31.175Z,0.80
2022-10-09T10:49:59.581Z,0.75
2022-10-09T10:52:44.398Z,1.25
2022-10-09T10:55:30.271Z,1.10
2022-10-09T10:58:15.959Z,0.60
2022-10-09T11:00:58.569Z,0.70
2022-10-09T11:03:48.268Z,0.90
2022-10-09T11:06:28.817Z,0.73
2022-10-09T11:09:12.752Z,0.73
2022-10-09T11:11:49.800Z,0.77
2022-10-09T11:14:37.336Z,0.80
2022-10-09T11:17:22.906Z,0.80
2022-10-09T11:20:15.636Z,0.70
2022-10-09T11:23:06.726Z,0.70
2022-10-09T11:25:43.411Z,0.98
2022-10-09T11:28:19.513Z,0.80
2022-10-09T11:30:55.652Z,0.80
2022-10-09T11:33:33.877Z,0.77
2022-10-09T11:36:13.519Z,1.00
2022-10-09T11:38:47.492Z,0.95
2022-10-09T11:41:16.559Z,0.70
2022-10-09T11:44:01.796Z,0.57
2022-10-09T11:46:45.528Z,1.00
2022-10-09T11:49:24.985Z,1.00
2022-10-09T11:52:02.854Z,0.70
2022-10-09T11:54:31.921Z,0.73
2022-10-09T11:57:05.995Z,1.00
2022-10-09T11:59:37.286Z,0.85
2022-10-09T12:02:25.346Z,1.02
2022-10-09T12:04:55.748Z,1.23
2022-10-09T12:07:33.237Z,0.80
2022-10-09T12:10:08.175Z,0.80
2022-10-09T12:12:38.636Z,0.57
2022-10-09T12:15:27.120Z,1.27
2022-10-09T12:17:55.456Z,0.60
2022-10-09T12:20:26.879Z,0.80
2022-10-09T12:23:25.206Z,0.80
2022-10-09T12:25:50.843Z,0.75
2022-10-09T12:28:29.392Z,0.70
2022-10-09T12:31:00.696Z,0.68
2022-10-09T12:33:35.470Z,0.50
2022-10-09T12:36:12.765Z,0.60
2022-10-09T12:38:43.455Z,1.00
2022-10-09T12:41:20.880Z,0.90
2022-10-09T12:43:51.038Z,0.90
2022-10-09T12:46:30.156Z,1.63
2022-10-09T12:49:00.385Z,2.53
2022-10-09T12:51:32.310Z,0.90
2022-10-09T12:54:10.438Z,0.63
2022-10-09T12:56:40.141Z,0.90
2022-10-09T12:59:10.970Z,0.80
2022-10-09T13:01:41.169Z,0.70
2022-10-09T13:04:26.173Z,0.50
2022-10-09T13:09:27.839Z,0.60
2022-10-09T13:12:00.540Z,0.60
2022-10-09T13:14:36.835Z,0.40
2022-10-09T13:17:05.220Z,0.50
2022-10-09T13:19:35.849Z,0.43
2022-10-09T13:22:18.814Z,0.95
2022-10-09T13:24:53.170Z,0.47
2022-10-09T13:27:22.349Z,0.93
2022-10-09T13:29:50.637Z,0.50
2022-10-09T13:32:19.744Z,0.47
2022-10-09T13:34:48.271Z,0.40
2022-10-09T13:37:20.086Z,0.60
2022-10-09T13:39:51.605Z,0.82
2022-10-09T13:42:20.724Z,0.90
2022-10-09T13:44:49.216Z,0.65
2022-10-09T13:47:20.763Z,0.30
2022-10-09T13:49:52.963Z,0.82
2022-10-09T13:52:21.219Z,0.82
2022-10-09T13:54:50.891Z,0.68
2022-10-09T13:57:19.452Z,0.70
2022-10-09T13:59:48.157Z,0.57
2022-10-09T14:02:16.792Z,0.63
2022-10-09T14:04:45.116Z,0.70
2022-10-09T14:07:13.679Z,0.50
2022-10-09T14:09:42.012Z,0.45
2022-10-09T14:12:11.656Z,0.88
2022-10-09T14:14:39.950Z,0.70
2022-10-09T14:17:08.496Z,0.60
2022-10-09T14:19:37.123Z,0.68
2022-10-09T14:22:05.636Z,0.63
2022-10-09T14:24:34.056Z,2.30
2022-10-09T14:27:02.287Z,1.33
2022-10-09T14:29:32.093Z,1.02
2022-10-09T14:32:00.329Z,0.77
2022-10-09T14:34:28.762Z,0.70
2022-10-09T14:36:57.013Z,0.63
2022-10-09T14:39:25.396Z,1.25
2022-10-09T14:41:53.623Z,0.90
2022-10-09T14:44:22.136Z,0.73
2022-10-09T14:46:51.669Z,0.70
2022-10-09T14:49:21.452Z,0.95
2022-10-09T14:51:49.674Z,0.90
2022-10-09T14:54:18.159Z,1.70
2022-10-09T14:56:46.336Z,1.38
2022-10-09T14:59:14.632Z,1.05
2022-10-09T15:01:43.122Z,0.82
2022-10-09T15:04:14.124Z,1.00
2022-10-09T15:06:42.778Z,0.57
2022-10-09T15:09:10.986Z,1.20
2022-10-09T15:11:39.293Z,0.95
2022-10-09T15:14:07.881Z,0.93
2022-10-09T15:16:36.527Z,0.80
2022-10-09T15:19:05.680Z,1.02
2022-10-09T15:21:36.958Z,1.00
2022-10-09T15:24:07.085Z,0.73
2022-10-09T15:26:37.256Z,1.70
2022-10-09T15:29:08.598Z,0.93
2022-10-09T15:31:39.388Z,0.95
2022-10-09T15:34:11.221Z,1.10
2022-10-09T15:36:43.077Z,1.15
2022-10-09T15:39:11.951Z,1.42
2022-10-09T15:41:42.796Z,0.85
2022-10-09T15:44:17.673Z,1.20
2022-10-09T15:46:47.290Z,0.93
2022-10-09T15:49:15.651Z,1.10
2022-10-09T15:51:45.384Z,0.93
2022-10-09T15:54:14.712Z,1.00
2022-10-09T15:56:43.224Z,0.93
2022-10-09T15:59:13.598Z,1.15
2022-10-09T16:01:41.852Z,1.10
2022-10-09T16:04:10.251Z,1.13
2022-10-09T16:06:39.212Z,1.20
2022-10-09T16:09:09.113Z,1.10
2022-10-09T16:11:37.367Z,1.73
2022-10-09T16:14:05.738Z,1.30
2022-10-09T16:16:34.620Z,1.15
2022-10-09T16:19:05.071Z,0.93
2022-10-09T16:21:34.066Z,0.80
2022-10-09T16:24:02.497Z,0.75
2022-10-09T16:26:32.182Z,1.02
2022-10-09T16:29:01.595Z,1.30
2022-10-09T16:31:34.651Z,1.50
2022-10-09T16:34:03.866Z,2.10
2022-10-09T16:36:32.467Z,1.63
2022-10-09T16:39:00.800Z,1.52
2022-10-09T16:41:29.040Z,1.13
2022-10-09T16:44:00.151Z,0.70
2022-10-09T16:46:31.556Z,0.77
2022-10-09T16:49:02.684Z,1.98
2022-10-09T16:51:33.453Z,1.60
2022-10-09T16:54:04.688Z,5.57
2022-10-09T16:56:36.620Z,5.80
2022-10-09T16:59:08.860Z,3.45
2022-10-09T17:01:40.242Z,3.35
2022-10-09T17:04:08.496Z,3.45
2022-10-09T17:06:36.984Z,5.25
2022-10-09T17:09:13.726Z,3.95
2022-10-09T17:11:42.683Z,2.88
2022-10-09T17:14:12.923Z,1.85
2022-10-09T17:16:43.589Z,1.60
2022-10-09T17:19:11.966Z,1.60
2022-10-09T17:21:40.348Z,1.98
2022-10-09T17:24:08.856Z,2.35
2022-10-09T17:26:37.571Z,3.10
2022-10-09T17:29:07.381Z,2.42
2022-10-09T17:31:36.963Z,2.22
2022-10-09T17:34:06.573Z,2.10
2022-10-09T17:36:39.875Z,2.08
2022-10-09T17:39:12.085Z,1.38
2022-10-09T17:41:40.489Z,1.67
2022-10-09T17:44:09.635Z,3.53
2022-10-09T17:46:39.336Z,2.53
2022-10-09T17:49:07.841Z,2.38
2022-10-09T17:51:39.514Z,1.42
2022-10-09T17:54:12.013Z,1.48
2022-10-09T17:56:41.358Z,1.73
2022-10-09T17:59:10.142Z,2.15
2022-10-09T18:01:39.963Z,2.28
2022-10-09T18:04:08.302Z,2.10
2022-10-09T18:06:36.932Z,1.83
2022-10-09T18:09:05.864Z,1.92
2022-10-09T18:11:34.148Z,1.70
2022-10-09T18:14:03.764Z,2.67
2022-10-09T18:16:38.009Z,2.35
2022-10-09T18:19:11.439Z,3.88
2022-10-09T18:21:41.704Z,3.05
2022-10-09T18:24:10.260Z,2.03
2022-10-09T18:26:38.956Z,2.67
2022-10-09T18:29:07.556Z,2.22
2022-10-09T18:31:36.660Z,2.00
2022-10-09T18:34:04.904Z,1.92
2022-10-09T18:36:34.947Z,3.00
2022-10-09T18:39:06.830Z,4.90
2022-10-09T18:41:38.074Z,3.75
2022-10-09T18:44:12.094Z,2.65
2022-10-09T18:46:45.951Z,3.67
2022-10-09T18:49:18.642Z,6.13
2022-10-09T18:51:49.414Z,4.18
2022-10-09T18:54:19.349Z,3.47
2022-10-09T18:56:48.200Z,4.90
2022-10-09T18:59:20.368Z,6.85
2022-10-09T19:01:48.940Z,5.72
2022-10-09T19:04:18.883Z,4.00
2022-10-09T19:06:48.864Z,4.68
2022-10-09T19:09:17.494Z,4.65
2022-10-09T19:11:45.840Z,4.47
2022-10-09T19:14:15.793Z,2.88
2022-10-09T19:16:44.041Z,2.72
2022-10-09T19:19:12.602Z,3.22
2022-10-09T19:21:44.042Z,2.42
2022-10-09T19:24:14.740Z,2.40
2022-10-09T19:26:43.108Z,2.50
2022-10-09T19:29:11.940Z,2.78
2022-10-09T19:31:40.151Z,2.45
2022-10-09T19:34:08.764Z,1.85
2022-10-09T19:36:37.563Z,2.38
2022-10-09T19:39:06.393Z,2.22
2022-10-09T19:41:36.417Z,2.30
2022-10-09T19:44:04.613Z,2.08
2022-10-09T19:46:32.815Z,1.92
2022-10-09T19:49:01.861Z,2.20
2022-10-09T19:51:30.184Z,2.17
2022-10-09T19:53:59.075Z,2.28
2022-10-09T19:56:30.467Z,1.85
2022-10-09T19:59:02.796Z,2.53
2022-10-09T20:01:32.834Z,2.20
2022-10-09T20:04:04.147Z,2.00
2022-10-09T20:06:32.621Z,2.20
2022-10-09T20:09:00.808Z,2.42
2022-10-09T20:11:29.135Z,2.00
2022-10-09T20:13:57.680Z,2.40
2022-10-09T20:16:31.925Z,2.08
2022-10-09T20:19:00.947Z,1.70
2022-10-09T20:21:31.737Z,1.80
2022-10-09T20:24:01.620Z,1.90
2022-10-09T20:26:31.393Z,2.85
2022-10-09T20:29:00.042Z,2.45
2022-10-09T20:31:31.065Z,2.50
2022-10-09T20:33:59.933Z,2.30
2022-10-09T20:36:31.497Z,1.88
2022-10-09T20:39:02.502Z,2.53
2022-10-09T20:41:32.057Z,2.47
2022-10-09T20:44:02.785Z,2.47
2022-10-09T20:46:35.092Z,1.95
2022-10-09T20:49:06.054Z,2.10
2022-10-09T20:51:36.866Z,1.55
2022-10-09T20:54:07.062Z,1.60
2022-10-09T20:56:36.551Z,1.60
2022-10-09T20:59:05.095Z,1.73
2022-10-09T21:01:36.739Z,1.90
2022-10-09T21:04:05.609Z,2.13
2022-10-09T21:06:36.012Z,2.20
2022-10-09T21:09:04.973Z,1.70
2022-10-09T21:11:34.762Z,2.17
2022-10-09T21:14:03.766Z,2.42
2022-10-09T21:16:33.699Z,2.72
2022-10-09T21:19:05.142Z,2.38
2022-10-09T21:21:34.711Z,1.55
2022-10-09T21:24:03.168Z,1.73
2022-10-09T21:26:35.740Z,2.08
2022-10-09T21:29:04.943Z,1.90
2022-10-09T21:31:35.118Z,1.88
2022-10-09T21:34:03.384Z,2.47
2022-10-09T21:36:56.215Z,3.47
2022-10-09T21:39:29.723Z,3.20
2022-10-09T21:41:58.117Z,2.70
2022-10-09T21:44:27.513Z,1.73
2022-10-09T21:46:57.154Z,1.98
2022-10-09T21:49:27.935Z,1.60
2022-10-09T21:51:56.664Z,1.95
2022-10-09T21:54:25.133Z,1.88
2022-10-09T21:56:53.670Z,1.83
2022-10-09T21:59:21.948Z,2.22
2022-10-09T22:01:50.124Z,2.30
2022-10-09T22:04:19.718Z,2.33
2022-10-09T22:06:48.335Z,2.10
2022-10-09T22:09:16.832Z,1.65
2022-10-09T22:11:45.396Z,2.00
2022-10-09T22:14:13.747Z,1.92
2022-10-09T22:16:42.246Z,1.77
2022-10-09T22:19:10.784Z,2.70
2022-10-09T22:21:40.336Z,1.98
2022-10-09T22:24:08.557Z,2.08
2022-10-09T22:26:37.500Z,2.22
2022-10-09T22:29:06.007Z,2.22
2022-10-09T22:31:34.616Z,2.28
2022-10-09T22:34:03.725Z,2.45
2022-10-09T22:36:33.999Z,2.03
2022-10-09T22:39:07.339Z,1.80
2022-10-09T22:41:36.432Z,2.10
2022-10-09T22:44:07.533Z,2.08
2022-10-09T22:46:39.037Z,1.80
2022-10-09T22:49:11.300Z,1.35
2022-10-09T22:51:39.720Z,2.05
2022-10-09T22:54:09.532Z,2.10
2022-10-09T22:56:41.484Z,2.33
2022-10-09T22:59:11.737Z,1.98
2022-10-09T23:01:45.366Z,2.17
2022-10-09T23:04:15.777Z,2.47
2022-10-09T23:06:45.473Z,2.65
2022-10-09T23:09:16.097Z,2.33
2022-10-09T23:11:44.861Z,2.58
2022-10-09T23:14:13.966Z,2.20
2022-10-09T23:16:42.844Z,2.38
2022-10-09T23:19:11.809Z,2.80
2022-10-09T23:21:43.118Z,2.58
2022-10-09T23:24:17.855Z,2.55
2022-10-09T23:26:47.513Z,3.10
2022-10-09T23:29:18.600Z,2.53
2022-10-09T23:31:48.464Z,2.65
2022-10-09T23:34:17.015Z,3.05
2022-10-09T23:36:45.499Z,3.47
2022-10-09T23:39:15.354Z,3.00
2022-10-09T23:41:43.923Z,2.60
2022-10-09T23:44:12.124Z,2.78
2022-10-09T23:46:40.408Z,3.22
2022-10-09T23:49:08.647Z,3.28
2022-10-09T23:51:37.936Z,3.70
2022-10-09T23:54:07.105Z,3.33
2022-10-09T23:56:38.107Z,3.50
2022-10-09T23:59:07.698Z,3.47
